Time;durP1;ratioP1;P1;durP2;ratioP2;P2;SDS_P1;SDS_P2;PMS_P1;PMS_P2;Temp;Humidity;BMP_temperature;BMP_pressure;BME280_temperature;BME280_humidity;BME280_pressure;Samples;Min_cycle;Max_cycle;Signal;HPM_P1;HPM_P2
2023/03/13 00:01:01;;;;;;;33.72;9.15;;;9.10;99.90;;;;;;5047469;28;20114;-77
2023/03/13 00:03:29;;;;;;;31.15;8.70;;;9.10;99.90;;;;;;5078950;28;20398;-76
2023/03/13 00:05:56;;;;;;;34.60;10.70;;;9.10;99.90;;;;;;5107854;27;20039;-78
2023/03/13 00:08:23;;;;;;;34.53;9.35;;;9.10;99.90;;;;;;5056879;28;20040;-77
2023/03/13 00:10:49;;;;;;;33.38;9.50;;;9.00;99.90;;;;;;5039538;28;20048;-76
2023/03/13 00:13:15;;;;;;;34.08;9.10;;;9.00;99.90;;;;;;5060082;28;20050;-76
2023/03/13 00:15:40;;;;;;;39.58;9.43;;;9.00;99.90;;;;;;5040923;28;20032;-76
2023/03/13 00:18:06;;;;;;;42.72;9.82;;;9.00;99.90;;;;;;5028310;28;20044;-76
2023/03/13 00:20:32;;;;;;;32.13;8.68;;;9.00;99.90;;;;;;5031775;28;20127;-75
2023/03/13 00:22:58;;;;;;;36.83;9.70;;;9.00;99.90;;;;;;5105365;27;20393;-74
2023/03/13 00:25:23;;;;;;;32.80;8.40;;;9.00;99.90;;;;;;5024279;28;20145;-75
2023/03/13 00:27:49;;;;;;;33.08;8.80;;;9.00;99.90;;;;;;5045015;28;20043;-75
2023/03/13 00:30:15;;;;;;;37.90;8.77;;;9.00;99.90;;;;;;5047899;28;20474;-76
2023/03/13 00:32:42;;;;;;;36.63;9.23;;;8.90;99.90;;;;;;5060961;28;20036;-75
2023/03/13 00:35:12;;;;;;;35.88;8.85;;;8.90;99.90;;;;;;5079985;28;20131;-75
2023/03/13 00:37:38;;;;;;;36.75;9.75;;;8.90;99.90;;;;;;5049000;28;20040;-75
2023/03/13 00:40:05;;;;;;;37.28;9.20;;;8.90;99.90;;;;;;5048816;28;20085;-75
2023/03/13 00:42:31;;;;;;;40.72;10.50;;;8.90;99.90;;;;;;5090888;28;20135;-76
2023/03/13 00:44:57;;;;;;;34.35;9.45;;;8.90;99.90;;;;;;5043456;28;20128;-76
2023/03/13 00:47:23;;;;;;;35.88;8.52;;;8.90;99.90;;;;;;5065550;28;20048;-77
2023/03/13 00:49:49;;;;;;;31.17;8.38;;;8.90;99.90;;;;;;5063412;28;20140;-77
2023/03/13 00:52:15;;;;;;;36.33;8.80;;;8.90;99.90;;;;;;5050153;28;20171;-77
2023/03/13 00:54:41;;;;;;;31.52;8.43;;;8.90;99.90;;;;;;5069877;28;20111;-78
2023/03/13 00:57:08;;;;;;;31.67;8.13;;;8.90;99.90;;;;;;5039580;28;20040;-78
2023/03/13 00:59:34;;;;;;;30.75;8.82;;;8.90;99.90;;;;;;5058678;28;20043;-77
2023/03/13 01:02:00;;;;;;;33.17;8.43;;;8.90;99.90;;;;;;5036097;28;20059;-77
2023/03/13 01:04:26;;;;;;;35.78;8.98;;;8.90;99.90;;;;;;5106076;28;20490;-77
2023/03/13 01:06:51;;;;;;;33.78;9.55;;;8.90;99.90;;;;;;5053927;28;20040;-76
2023/03/13 01:09:18;;;;;;;29.92;8.18;;;8.90;99.90;;;;;;5069980;28;20127;-78
2023/03/13 01:11:45;;;;;;;30.17;8.95;;;8.90;99.90;;;;;;5078027;28;20124;-78
2023/03/13 01:14:14;;;;;;;32.60;9.02;;;8.80;99.90;;;;;;5047632;28;20036;-77
2023/03/13 01:16:40;;;;;;;27.85;8.23;;;8.80;99.90;;;;;;5071420;28;20135;-77
2023/03/13 01:19:09;;;;;;;35.63;9.13;;;8.80;99.90;;;;;;5055087;28;20058;-77
2023/03/13 01:21:35;;;;;;;30.52;8.60;;;8.90;99.90;;;;;;5069435;28;20055;-77
2023/03/13 01:24:01;;;;;;;30.55;8.85;;;8.90;99.90;;;;;;5061815;28;20067;-78
2023/03/13 01:26:27;;;;;;;34.88;9.63;;;8.90;99.90;;;;;;5066858;28;20063;-77
2023/03/13 01:28:54;;;;;;;29.35;9.38;;;8.90;99.90;;;;;;5051185;28;20554;-76
2023/03/13 01:31:23;;;;;;;31.73;9.13;;;8.90;99.90;;;;;;5046019;28;20410;-76
2023/03/13 01:33:51;;;;;;;29.90;8.73;;;8.90;99.90;;;;;;5100695;28;20055;-76
2023/03/13 01:36:17;;;;;;;28.15;8.18;;;9.00;99.90;;;;;;5061781;28;20343;-76
2023/03/13 01:46:17;;;;;;;30.38;9.15;;;9.00;99.90;;;;;;5076757;28;20039;-76
2023/03/13 01:48:49;;;;;;;30.38;8.55;;;9.00;99.90;;;;;;5065803;28;20567;-76
2023/03/13 01:51:30;;;;;;;30.50;8.75;;;9.00;99.90;;;;;;5053740;28;20405;-76
2023/03/13 01:54:05;;;;;;;28.83;9.00;;;9.00;99.90;;;;;;5056937;28;21037;-75
2023/03/13 01:56:54;;;;;;;27.52;8.45;;;9.00;99.90;;;;;;5058670;28;20577;-75
2023/03/13 01:59:27;;;;;;;28.00;8.00;;;9.00;99.90;;;;;;5048808;28;20060;-76
2023/03/13 02:01:57;;;;;;;31.52;9.13;;;9.00;99.90;;;;;;5047425;28;20060;-75
2023/03/13 02:04:26;;;;;;;33.33;9.60;;;9.00;99.90;;;;;;5056658;28;20044;-76
2023/03/13 02:06:57;;;;;;;32.75;9.10;;;9.00;99.90;;;;;;5066258;28;20040;-78
2023/03/13 02:09:27;;;;;;;38.55;10.38;;;9.00;99.90;;;;;;5065147;28;20048;-76
2023/03/13 02:11:59;;;;;;;33.00;9.77;;;9.00;99.90;;;;;;5067903;28;20078;-76
2023/03/13 02:14:29;;;;;;;33.20;10.00;;;9.00;99.90;;;;;;5049997;28;20375;-75
2023/03/13 02:16:58;;;;;;;33.33;10.00;;;9.00;99.90;;;;;;5065862;28;20044;-76
2023/03/13 02:19:43;;;;;;;26.60;9.32;;;8.90;99.90;;;;;;5060809;28;20058;-75
2023/03/13 02:22:30;;;;;;;30.63;10.55;;;8.90;99.90;;;;;;5085690;28;20562;-76
2023/03/13 02:24:55;;;;;;;28.52;9.88;;;8.90;99.90;;;;;;5041956;28;20045;-75
2023/03/13 02:27:22;;;;;;;24.70;9.48;;;9.00;99.90;;;;;;5073513;28;20040;-76
2023/03/13 02:29:48;;;;;;;25.73;9.82;;;9.00;99.90;;;;;;5075326;28;20043;-76
2023/03/13 02:32:15;;;;;;;28.30;9.98;;;9.00;99.90;;;;;;5042601;28;20044;-75
2023/03/13 02:34:42;;;;;;;23.17;9.10;;;9.00;99.90;;;;;;5050148;28;20070;-77
2023/03/13 02:37:09;;;;;;;23.02;9.15;;;9.00;99.90;;;;;;5057844;28;20040;-76
2023/03/13 02:39:38;;;;;;;24.55;8.98;;;9.00;99.90;;;;;;5068468;28;20047;-77
2023/03/13 02:42:04;;;;;;;20.75;9.88;;;9.00;99.90;;;;;;5049033;28;20423;-77
2023/03/13 02:44:30;;;;;;;23.05;9.68;;;9.10;99.90;;;;;;5032751;28;20108;-76
2023/03/13 02:46:56;;;;;;;19.25;9.35;;;9.00;99.90;;;;;;5071980;28;20054;-77
2023/03/13 02:49:28;;;;;;;20.90;9.15;;;9.00;99.90;;;;;;5035806;28;20081;-76
2023/03/13 02:51:56;;;;;;;19.58;9.18;;;9.10;99.90;;;;;;5049297;28;20052;-76
2023/03/13 02:54:32;;;;;;;20.13;9.48;;;9.10;99.90;;;;;;5047219;28;20079;-76
2023/03/13 02:57:00;;;;;;;13.13;8.10;;;9.10;99.90;;;;;;5065713;28;20156;-76
2023/03/13 02:59:30;;;;;;;16.10;8.75;;;9.10;99.90;;;;;;5067084;28;20046;-77
2023/03/13 03:01:56;;;;;;;21.05;9.20;;;9.10;99.90;;;;;;5095997;27;21291;-76
2023/03/13 03:04:24;;;;;;;12.80;7.82;;;9.10;99.90;;;;;;5021666;28;20056;-75
2023/03/13 03:06:50;;;;;;;14.27;7.68;;;9.10;99.90;;;;;;5060838;28;20046;-75
2023/03/13 03:09:17;;;;;;;18.17;8.55;;;9.10;99.90;;;;;;5071021;28;20047;-76
2023/03/13 03:11:43;;;;;;;14.02;7.90;;;9.20;99.90;;;;;;5069842;28;20044;-76
2023/03/13 03:14:10;;;;;;;13.73;8.32;;;9.10;99.90;;;;;;5083516;28;20043;-75
2023/03/13 03:16:37;;;;;;;16.58;8.68;;;9.20;99.90;;;;;;5051121;28;20040;-76
2023/03/13 03:19:03;;;;;;;15.43;7.55;;;9.20;99.90;;;;;;5050837;28;20195;-76
2023/03/13 03:21:29;;;;;;;13.18;8.18;;;9.20;99.90;;;;;;5046361;28;20045;-77
2023/03/13 03:23:55;;;;;;;11.98;7.45;;;9.30;99.90;;;;;;5045170;28;20055;-77
2023/03/13 03:26:21;;;;;;;11.30;7.85;;;9.30;99.90;;;;;;5107587;27;20036;-77
2023/03/13 03:28:46;;;;;;;11.07;7.65;;;9.40;99.90;;;;;;5067413;28;20032;-76
2023/03/13 03:31:13;;;;;;;13.20;7.60;;;9.40;99.90;;;;;;5047431;28;20498;-75
2023/03/13 03:33:40;;;;;;;10.98;7.25;;;9.40;99.90;;;;;;5089872;28;20036;-77
2023/03/13 03:36:09;;;;;;;14.02;9.18;;;9.50;99.90;;;;;;5089305;28;20525;-77
2023/03/13 03:38:35;;;;;;;11.52;8.63;;;9.50;99.90;;;;;;5055503;28;20038;-76
2023/03/13 03:41:01;;;;;;;13.27;8.70;;;9.50;99.90;;;;;;5057662;28;20163;-77
2023/03/13 03:43:27;;;;;;;12.52;8.35;;;9.60;99.90;;;;;;5074241;28;20134;-77
2023/03/13 03:45:53;;;;;;;16.65;9.43;;;9.60;99.90;;;;;;5043802;28;20123;-77
2023/03/13 03:48:18;;;;;;;16.27;9.48;;;9.60;99.90;;;;;;5047446;28;20082;-77
2023/03/13 03:50:44;;;;;;;12.20;9.32;;;9.60;99.90;;;;;;5032420;28;20051;-76
2023/03/13 03:53:10;;;;;;;15.05;10.15;;;9.70;99.90;;;;;;5064508;28;20126;-77
2023/03/13 03:55:36;;;;;;;13.00;9.45;;;9.60;99.90;;;;;;5073532;28;20052;-77
2023/03/13 03:58:02;;;;;;;13.77;9.65;;;9.70;99.90;;;;;;5066837;28;20120;-77
2023/03/13 04:00:28;;;;;;;13.75;8.98;;;9.70;99.90;;;;;;5062856;28;20048;-75
2023/03/13 04:02:55;;;;;;;12.90;9.25;;;9.80;99.90;;;;;;5052960;28;20139;-77
2023/03/13 04:05:22;;;;;;;13.70;8.75;;;9.80;99.90;;;;;;5067101;28;20056;-77
2023/03/13 04:07:47;;;;;;;15.40;9.45;;;9.90;99.90;;;;;;5077830;28;20036;-76
2023/03/13 04:10:14;;;;;;;14.50;9.70;;;9.90;99.90;;;;;;5027956;28;20051;-77
2023/03/13 04:12:40;;;;;;;12.40;9.40;;;9.90;99.90;;;;;;5059966;28;20060;-75
2023/03/13 04:15:06;;;;;;;10.93;8.60;;;10.00;99.90;;;;;;5061670;28;20068;-76
2023/03/13 04:17:32;;;;;;;12.07;9.00;;;10.00;99.90;;;;;;5049787;28;20122;-77
2023/03/13 04:19:59;;;;;;;11.65;9.02;;;10.00;99.90;;;;;;5055639;28;20395;-76
2023/03/13 04:22:27;;;;;;;10.55;8.60;;;10.10;99.90;;;;;;5049387;28;20062;-75
2023/03/13 04:24:53;;;;;;;10.25;8.85;;;10.10;99.90;;;;;;5072410;28;20036;-74
2023/03/13 04:27:19;;;;;;;10.95;9.23;;;10.20;99.90;;;;;;5078348;28;20116;-75
2023/03/13 04:29:45;;;;;;;12.50;9.23;;;10.20;99.90;;;;;;5059241;28;20212;-76
2023/03/13 04:32:10;;;;;;;11.75;9.38;;;10.30;99.90;;;;;;5069314;28;20048;-77
2023/03/13 04:34:36;;;;;;;12.95;10.00;;;10.40;99.90;;;;;;5083381;28;20139;-76
2023/03/13 04:37:02;;;;;;;13.23;10.30;;;10.40;99.90;;;;;;5059006;28;20031;-78
2023/03/13 04:39:28;;;;;;;13.50;11.20;;;10.50;99.90;;;;;;5072049;28;20035;-76
2023/03/13 04:41:57;;;;;;;15.23;12.13;;;10.50;99.90;;;;;;5037539;28;20040;-77
2023/03/13 04:44:23;;;;;;;14.02;12.45;;;10.60;99.90;;;;;;5049831;28;20054;-76
2023/03/13 04:46:49;;;;;;;16.13;13.07;;;10.60;99.90;;;;;;5056895;28;20043;-76
2023/03/13 04:49:15;;;;;;;16.67;14.88;;;10.70;99.90;;;;;;5037281;28;20059;-76
2023/03/13 04:51:42;;;;;;;17.75;14.60;;;10.80;99.90;;;;;;5065905;28;20526;-75
2023/03/13 04:54:08;;;;;;;17.27;13.90;;;10.80;99.90;;;;;;5050903;28;20134;-75
2023/03/13 04:56:34;;;;;;;18.35;15.15;;;10.80;99.90;;;;;;5052005;28;20064;-77
2023/03/13 04:58:59;;;;;;;17.80;15.65;;;10.90;99.90;;;;;;5035453;28;20035;-77
2023/03/13 05:01:25;;;;;;;23.00;16.38;;;10.90;99.90;;;;;;5029661;28;20045;-77
2023/03/13 05:03:51;;;;;;;19.65;16.02;;;10.90;99.90;;;;;;5031977;28;20037;-78
2023/03/13 05:06:17;;;;;;;18.40;16.35;;;11.00;99.90;;;;;;5033312;28;20098;-76
2023/03/13 05:08:43;;;;;;;19.35;16.58;;;11.00;99.90;;;;;;5025683;28;20049;-76
2023/03/13 05:11:08;;;;;;;20.25;16.98;;;11.00;99.90;;;;;;5047304;28;20499;-77
2023/03/13 05:13:34;;;;;;;18.40;16.42;;;11.00;99.90;;;;;;5051116;28;20495;-75
2023/03/13 05:16:00;;;;;;;20.15;16.85;;;11.10;99.90;;;;;;5039249;28;20431;-76
2023/03/13 05:18:26;;;;;;;17.42;15.43;;;11.20;99.90;;;;;;5043555;28;20041;-77
2023/03/13 05:20:52;;;;;;;18.75;15.25;;;11.20;99.90;;;;;;5026558;28;20514;-77
2023/03/13 05:23:18;;;;;;;17.92;16.00;;;11.20;99.90;;;;;;5033340;28;20472;-76
2023/03/13 05:25:44;;;;;;;17.15;15.20;;;11.30;99.90;;;;;;5049991;28;20111;-78
2023/03/13 05:28:12;;;;;;;15.55;13.95;;;11.30;99.90;;;;;;5040128;28;20094;-78
2023/03/13 05:30:38;;;;;;;15.80;13.15;;;11.40;99.90;;;;;;5051421;28;20041;-78
2023/03/13 05:33:04;;;;;;;15.80;14.10;;;11.40;99.90;;;;;;5053706;28;20037;-76
2023/03/13 05:35:30;;;;;;;16.15;12.98;;;11.40;99.90;;;;;;5024356;28;20072;-76
2023/03/13 05:37:56;;;;;;;15.20;12.10;;;11.40;99.90;;;;;;5044871;28;20036;-79
2023/03/13 05:40:21;;;;;;;16.75;12.10;;;11.50;99.90;;;;;;5054620;28;20051;-78
2023/03/13 05:42:47;;;;;;;15.27;12.40;;;11.50;99.90;;;;;;5044940;28;20531;-77
2023/03/13 05:45:13;;;;;;;14.70;11.55;;;11.50;99.90;;;;;;5048824;28;20063;-76
2023/03/13 05:47:40;;;;;;;15.60;12.57;;;11.50;99.90;;;;;;5064567;28;20063;-78
2023/03/13 05:50:06;;;;;;;12.68;11.30;;;11.50;99.90;;;;;;5048180;28;20091;-78
2023/03/13 05:52:33;;;;;;;14.07;10.95;;;11.50;99.90;;;;;;5037726;28;20102;-77
2023/03/13 05:54:59;;;;;;;12.07;10.60;;;11.50;99.90;;;;;;5071327;28;20070;-77
2023/03/13 05:57:28;;;;;;;12.50;10.48;;;11.50;99.90;;;;;;5023270;28;20060;-78
2023/03/13 05:59:53;;;;;;;12.32;10.85;;;11.50;99.90;;;;;;5059456;28;20137;-79
2023/03/13 06:02:19;;;;;;;13.23;10.95;;;11.60;99.90;;;;;;5052166;28;20490;-75
2023/03/13 06:04:46;;;;;;;13.18;9.77;;;11.60;99.90;;;;;;5088319;27;20453;-76
2023/03/13 06:07:12;;;;;;;14.02;9.48;;;11.60;99.90;;;;;;5039317;28;20728;-74
2023/03/13 06:09:39;;;;;;;12.25;9.63;;;11.60;99.90;;;;;;5057005;28;20044;-76
2023/03/13 06:12:07;;;;;;;12.23;9.93;;;11.60;99.90;;;;;;5066959;28;20127;-76
2023/03/13 06:14:33;;;;;;;12.25;9.05;;;11.60;99.90;;;;;;5055601;28;20059;-77
2023/03/13 06:16:58;;;;;;;12.45;9.50;;;11.70;99.90;;;;;;5042162;28;20467;-77
2023/03/13 06:19:27;;;;;;;11.95;9.35;;;11.70;99.90;;;;;;5059313;28;20076;-76
2023/03/13 06:21:53;;;;;;;13.63;9.70;;;11.70;99.90;;;;;;5045248;28;20120;-76
2023/03/13 06:24:18;;;;;;;11.13;9.25;;;11.70;99.90;;;;;;5084289;28;20468;-77
2023/03/13 06:26:47;;;;;;;12.52;10.10;;;11.80;99.90;;;;;;5013699;28;20067;-77
2023/03/13 06:29:12;;;;;;;13.57;8.90;;;11.80;99.90;;;;;;5075744;28;20506;-79
2023/03/13 06:31:38;;;;;;;13.52;9.30;;;11.80;99.90;;;;;;5041599;28;20327;-76
2023/03/13 06:34:04;;;;;;;14.18;9.57;;;11.80;99.90;;;;;;5038087;28;20037;-77
2023/03/13 06:36:30;;;;;;;13.30;9.82;;;11.80;99.90;;;;;;5028166;28;20044;-76
2023/03/13 06:38:56;;;;;;;13.90;8.88;;;11.90;99.90;;;;;;5039008;28;20049;-75
2023/03/13 06:41:21;;;;;;;11.38;8.88;;;11.90;99.90;;;;;;5043354;28;20063;-76
2023/03/13 06:43:47;;;;;;;15.45;9.52;;;11.90;99.90;;;;;;5022708;28;20531;-74
2023/03/13 06:46:22;;;;;;;14.48;8.98;;;11.90;99.90;;;;;;5046460;28;20041;-73
2023/03/13 06:48:48;;;;;;;15.68;9.60;;;11.90;99.90;;;;;;5052217;28;20288;-73
2023/03/13 06:51:16;;;;;;;13.18;8.80;;;11.90;99.90;;;;;;5046930;28;20103;-74
2023/03/13 06:53:42;;;;;;;15.35;8.68;;;11.90;99.90;;;;;;5062128;28;20111;-73
2023/03/13 06:56:09;;;;;;;13.20;7.13;;;11.90;99.90;;;;;;5042391;28;20032;-74
2023/03/13 06:58:38;;;;;;;15.93;7.32;;;11.90;99.90;;;;;;5041150;28;20520;-78
2023/03/13 07:01:12;;;;;;;11.57;6.17;;;12.00;99.90;;;;;;5049127;28;20052;-74
2023/03/13 07:03:42;;;;;;;14.93;6.43;;;12.00;99.90;;;;;;5045003;28;20044;-73
2023/03/13 07:06:12;;;;;;;11.23;6.30;;;12.00;99.90;;;;;;5048804;28;20709;-75
2023/03/13 07:08:38;;;;;;;;;;;12.00;99.90;;;;;;5054052;28;20376;-75
2023/03/13 07:11:09;;;;;;;11.85;6.40;;;12.00;99.90;;;;;;5064864;28;19924;-75
2023/03/13 07:13:36;;;;;;;12.70;6.75;;;12.00;99.90;;;;;;5055097;28;20052;-76
2023/03/13 07:16:07;;;;;;;13.32;6.68;;;12.00;99.90;;;;;;5063891;28;20067;-78
2023/03/13 07:18:33;;;;;;;14.82;7.05;;;12.00;99.90;;;;;;5058453;28;20079;-77
2023/03/13 07:21:03;;;;;;;13.00;6.78;;;12.00;99.90;;;;;;5030660;28;20135;-73
2023/03/13 07:23:39;;;;;;;11.65;6.00;;;12.00;99.90;;;;;;5044580;28;20052;-77
2023/03/13 07:26:13;;;;;;;15.30;7.25;;;12.00;99.90;;;;;;5042803;28;20045;-75
2023/03/13 07:28:40;;;;;;;11.77;5.80;;;12.00;99.90;;;;;;5062234;28;20051;-77
2023/03/13 07:31:17;;;;;;;12.13;5.85;;;12.00;99.90;;;;;;5024679;28;20043;-75
2023/03/13 07:33:44;;;;;;;14.38;7.15;;;12.00;99.90;;;;;;5061138;28;20063;-79
2023/03/13 07:36:11;;;;;;;14.10;5.97;;;12.00;99.90;;;;;;5058585;28;20033;-73
2023/03/13 07:38:37;;;;;;;12.77;6.25;;;12.10;99.90;;;;;;5061941;28;20123;-79
2023/03/13 07:41:03;;;;;;;11.82;6.35;;;12.10;99.90;;;;;;5060634;28;20513;-74
2023/03/13 07:43:30;;;;;;;10.38;5.47;;;12.10;99.90;;;;;;5051532;28;20109;-75
2023/03/13 07:46:01;;;;;;;11.48;6.47;;;12.10;99.90;;;;;;5043513;28;20492;-75
2023/03/13 07:48:41;;;;;;;13.20;6.30;;;12.10;99.90;;;;;;5049010;28;20083;-77
2023/03/13 07:51:26;;;;;;;11.73;6.05;;;12.10;99.90;;;;;;5043647;28;20044;-77
2023/03/13 07:53:52;;;;;;;13.15;5.78;;;12.10;99.90;;;;;;5059153;28;20044;-75
2023/03/13 07:56:20;;;;;;;11.25;5.20;;;12.10;99.90;;;;;;5079951;28;20048;-75
2023/03/13 07:58:46;;;;;;;10.10;5.90;;;12.10;99.90;;;;;;5069406;28;20071;-77
2023/03/13 08:01:24;;;;;;;10.82;5.60;;;12.10;99.90;;;;;;5062426;28;20044;-76
2023/03/13 08:03:50;;;;;;;10.10;4.90;;;12.10;99.90;;;;;;5055644;28;20067;-77
2023/03/13 08:06:22;;;;;;;11.38;5.05;;;12.10;99.90;;;;;;5058303;28;20036;-76
2023/03/13 08:08:48;;;;;;;7.47;4.65;;;12.10;99.90;;;;;;5062403;28;20502;-78
2023/03/13 08:11:17;;;;;;;11.57;5.18;;;12.10;99.90;;;;;;5042037;28;20475;-77
2023/03/13 08:13:43;;;;;;;10.07;5.53;;;12.10;99.90;;;;;;5065522;28;20484;-77
2023/03/13 08:16:15;;;;;;;11.13;5.35;;;12.00;99.90;;;;;;5060159;28;20036;-75
2023/03/13 08:18:46;;;;;;;9.32;5.38;;;12.00;99.90;;;;;;5051498;28;20040;-77
2023/03/13 08:21:14;;;;;;;9.70;6.30;;;11.90;99.90;;;;;;5042257;28;20047;-75
2023/03/13 08:23:40;;;;;;;8.82;5.68;;;11.90;99.90;;;;;;5065711;28;20123;-75
2023/03/13 08:26:10;;;;;;;10.15;5.53;;;11.90;99.90;;;;;;5073929;28;20068;-75
2023/03/13 08:28:37;;;;;;;11.48;5.50;;;11.90;99.90;;;;;;5043625;28;20540;-74
2023/03/13 08:31:08;;;;;;;9.40;5.72;;;11.90;99.90;;;;;;5057781;28;20614;-76
2023/03/13 08:33:34;;;;;;;10.05;5.68;;;11.90;99.90;;;;;;5042472;28;20453;-75
2023/03/13 08:36:06;;;;;;;6.72;4.43;;;12.00;99.90;;;;;;5041293;28;20104;-73
2023/03/13 08:38:32;;;;;;;10.85;5.32;;;11.90;99.90;;;;;;5057232;28;20156;-75
2023/03/13 08:40:58;;;;;;;8.15;5.20;;;11.90;99.90;;;;;;5043579;28;21184;-74
2023/03/13 08:43:24;;;;;;;8.07;5.30;;;12.00;99.90;;;;;;5018852;28;20127;-74
2023/03/13 08:45:56;;;;;;;9.75;6.10;;;11.90;99.90;;;;;;5076206;28;20044;-72
2023/03/13 08:48:22;;;;;;;11.40;6.05;;;12.00;99.90;;;;;;5047100;28;20527;-73
2023/03/13 08:51:02;;;;;;;9.00;5.38;;;11.90;99.90;;;;;;5043669;28;20040;-74
2023/03/13 08:53:28;;;;;;;10.13;5.57;;;12.00;99.90;;;;;;5063231;28;20076;-75
2023/03/13 08:55:54;;;;;;;10.00;5.43;;;12.00;99.90;;;;;;5045204;28;20076;-73
2023/03/13 08:58:20;;;;;;;9.23;5.60;;;12.00;99.90;;;;;;5048943;28;20051;-75
2023/03/13 09:00:45;;;;;;;9.07;5.78;;;12.10;99.90;;;;;;5049664;28;20098;-75
2023/03/13 09:03:11;;;;;;;7.82;4.63;;;12.20;99.90;;;;;;5039838;28;20036;-76
2023/03/13 09:05:39;;;;;;;7.95;4.20;;;12.30;99.90;;;;;;5055550;28;20049;-77
2023/03/13 09:08:05;;;;;;;8.10;4.25;;;12.30;99.90;;;;;;5048181;28;20075;-75
2023/03/13 09:10:35;;;;;;;9.60;4.88;;;12.40;99.90;;;;;;5060012;28;20048;-75
2023/03/13 09:13:01;;;;;;;8.73;4.78;;;12.40;99.90;;;;;;5040323;28;20049;-75
2023/03/13 09:15:27;;;;;;;7.25;3.72;;;12.50;99.90;;;;;;5030979;28;20048;-79
2023/03/13 09:17:53;;;;;;;8.45;4.32;;;12.50;99.90;;;;;;5062533;28;20505;-75
2023/03/13 09:20:19;;;;;;;8.48;4.78;;;12.50;99.90;;;;;;5046663;28;20052;-75
2023/03/13 09:22:45;;;;;;;9.80;4.60;;;12.50;99.90;;;;;;5061473;28;20137;-75
2023/03/13 09:25:12;;;;;;;7.78;4.35;;;12.50;99.90;;;;;;5056872;28;20442;-76
2023/03/13 09:27:38;;;;;;;7.95;4.20;;;12.40;99.90;;;;;;5027399;28;20059;-74
2023/03/13 09:30:04;;;;;;;8.93;4.07;;;12.50;99.90;;;;;;5058430;28;20506;-75
2023/03/13 09:32:33;;;;;;;9.55;4.72;;;12.40;99.90;;;;;;5036800;28;20105;-74
2023/03/13 09:34:59;;;;;;;9.48;4.82;;;12.50;99.90;;;;;;5032544;28;20033;-74
2023/03/13 09:37:25;;;;;;;9.55;4.55;;;12.40;99.90;;;;;;5045402;28;20487;-75
2023/03/13 09:39:51;;;;;;;10.40;5.13;;;12.40;99.90;;;;;;5042805;28;20048;-75
2023/03/13 09:42:21;;;;;;;7.25;4.43;;;12.40;99.90;;;;;;5027268;28;20044;-75
2023/03/13 09:45:07;;;;;;;9.32;4.97;;;12.40;99.90;;;;;;5050769;28;20232;-74
2023/03/13 09:47:47;;;;;;;6.78;3.97;;;12.50;99.90;;;;;;5059250;28;20483;-75
2023/03/13 09:50:27;;;;;;;9.95;4.75;;;12.50;99.90;;;;;;5047110;28;20079;-75
2023/03/13 09:53:00;;;;;;;10.35;4.80;;;12.50;99.90;;;;;;5050505;28;20051;-74
2023/03/13 09:55:31;;;;;;;8.68;4.30;;;12.50;99.90;;;;;;5052109;28;20047;-74
2023/03/13 09:58:20;;;;;;;11.07;4.10;;;12.60;99.90;;;;;;5051470;28;20044;-75
2023/03/13 10:01:03;;;;;;;7.05;3.83;;;12.70;99.90;;;;;;5096038;28;20344;-78
2023/03/13 10:03:32;;;;;;;8.73;3.65;;;12.70;99.90;;;;;;5068626;28;20067;-75
2023/03/13 10:06:05;;;;;;;7.93;3.42;;;12.70;99.90;;;;;;5065454;28;20101;-74
2023/03/13 10:08:35;;;;;;;10.00;3.60;;;12.90;99.90;;;;;;5080966;28;20406;-75
2023/03/13 10:11:24;;;;;;;7.45;3.20;;;13.00;99.90;;;;;;5102852;27;20576;-74
2023/03/13 10:14:27;;;;;;;7.15;2.88;;;13.10;99.90;;;;;;5074519;28;20503;-75
2023/03/13 10:17:28;;;;;;;10.57;3.10;;;13.20;99.90;;;;;;5073242;28;20040;-74
2023/03/13 10:20:09;;;;;;;8.98;2.80;;;13.20;99.90;;;;;;5049406;28;20048;-74
2023/03/13 10:22:36;;;;;;;7.15;2.50;;;13.20;99.90;;;;;;5052892;28;20054;-74
2023/03/13 10:25:39;;;;;;;10.85;3.00;;;13.20;99.90;;;;;;5050669;28;20083;-76
2023/03/13 10:28:19;;;;;;;9.45;3.10;;;13.20;99.90;;;;;;5050639;28;20228;-76
2023/03/13 10:30:53;;;;;;;12.07;3.30;;;13.30;99.90;;;;;;5049291;28;20076;-73
2023/03/13 10:33:20;;;;;;;8.98;2.58;;;13.30;99.90;;;;;;5061628;28;20514;-75
2023/03/13 10:36:11;;;;;;;9.90;2.78;;;13.30;99.90;;;;;;5045190;28;20112;-73
2023/03/13 10:38:48;;;;;;;10.15;2.45;;;13.40;99.90;;;;;;5065137;28;20092;-75
2023/03/13 10:41:32;;;;;;;12.23;2.83;;;13.40;99.90;;;;;;5071860;28;20059;-76
2023/03/13 10:44:05;;;;;;;11.88;3.38;;;13.50;99.90;;;;;;5091641;28;20363;-74
2023/03/13 10:46:50;;;;;;;11.05;3.17;;;13.50;99.90;;;;;;5050431;28;20044;-74
2023/03/13 10:49:22;;;;;;;12.75;3.17;;;13.60;99.90;;;;;;5045249;28;20044;-75
2023/03/13 10:51:59;;;;;;;11.55;2.80;;;13.60;99.90;;;;;;5045190;28;20048;-73
2023/03/13 10:54:36;;;;;;;11.95;2.78;;;13.70;99.90;;;;;;5044078;28;20059;-74
2023/03/13 10:57:29;;;;;;;13.43;3.17;;;13.70;99.90;;;;;;5061385;28;20177;-76
2023/03/13 10:59:56;;;;;;;11.20;3.20;;;13.80;99.90;;;;;;5071875;28;20131;-75
2023/03/13 11:02:35;;;;;;;8.95;2.78;;;13.80;99.90;;;;;;5063537;28;20132;-74
2023/03/13 11:05:33;;;;;;;12.73;2.88;;;13.90;99.90;;;;;;5070772;28;20130;-72
2023/03/13 11:08:30;;;;;;;13.50;3.33;;;14.00;99.90;;;;;;5065296;28;20040;-74
2023/03/13 11:11:01;;;;;;;10.73;2.97;;;14.00;99.90;;;;;;5012805;28;20055;-74
2023/03/13 11:13:36;;;;;;;10.05;3.30;;;14.10;99.90;;;;;;5055107;28;20041;-73
2023/03/13 11:16:22;;;;;;;10.38;3.22;;;14.20;99.90;;;;;;5055745;28;20760;-74
2023/03/13 11:19:12;;;;;;;9.52;2.65;;;14.20;99.90;;;;;;5043582;28;20111;-75
2023/03/13 11:21:43;;;;;;;;;;;14.30;99.90;;;;;;5047054;28;20106;-74
2023/03/13 11:24:30;;;;;;;9.07;2.65;;;14.30;99.90;;;;;;5048071;28;19927;-74
2023/03/13 11:27:06;;;;;;;8.38;2.20;;;14.30;99.90;;;;;;5066955;28;20040;-75
2023/03/13 11:30:02;;;;;;;7.18;2.70;;;14.30;99.90;;;;;;5045959;28;20041;-74
2023/03/13 11:32:54;;;;;;;7.00;2.30;;;14.40;99.90;;;;;;5046039;28;20068;-73
2023/03/13 11:35:56;;;;;;;7.03;2.17;;;14.40;99.90;;;;;;5017511;28;20578;-74
2023/03/13 11:38:35;;;;;;;7.70;2.42;;;14.40;99.90;;;;;;5045678;28;20040;-75
2023/03/13 11:41:04;;;;;;;7.18;2.00;;;14.50;99.90;;;;;;5048538;28;20438;-73
2023/03/13 11:43:44;;;;;;;5.50;1.45;;;14.70;99.90;;;;;;5054672;28;20573;-74
2023/03/13 11:46:27;;;;;;;5.78;1.80;;;14.80;99.90;;;;;;5047949;28;20055;-76
2023/03/13 11:49:13;;;;;;;5.53;1.58;;;14.80;99.90;;;;;;5056005;28;20053;-76
2023/03/13 11:52:11;;;;;;;5.55;1.58;;;14.80;99.90;;;;;;5036736;28;20060;-75
2023/03/13 11:54:55;;;;;;;5.43;2.10;;;14.70;99.90;;;;;;5029310;28;20052;-73
2023/03/13 11:57:29;;;;;;;6.55;1.70;;;14.70;99.90;;;;;;5046406;28;20040;-74
2023/03/13 12:00:28;;;;;;;7.38;1.75;;;14.70;99.90;;;;;;5069098;28;20051;-74
2023/03/13 12:03:18;;;;;;;8.95;1.85;;;14.60;99.90;;;;;;5058510;28;20040;-75
2023/03/13 12:05:46;;;;;;;6.25;1.83;;;14.70;99.90;;;;;;5100164;27;20059;-74
2023/03/13 12:08:19;;;;;;;5.43;1.77;;;14.80;99.90;;;;;;5056901;28;20072;-74
2023/03/13 12:11:03;;;;;;;6.15;1.90;;;14.90;99.90;;;;;;5058071;28;20047;-74
2023/03/13 12:13:34;;;;;;;9.20;2.05;;;15.00;99.90;;;;;;5075607;28;20123;-73
2023/03/13 12:16:05;;;;;;;4.82;1.90;;;15.00;99.90;;;;;;5048720;28;20120;-74
2023/03/13 12:18:41;;;;;;;5.40;1.88;;;15.00;99.90;;;;;;5044368;28;20583;-74
2023/03/13 12:21:20;;;;;;;5.10;1.67;;;15.00;99.90;;;;;;5050268;28;20077;-76
2023/03/13 12:23:58;;;;;;;5.25;1.88;;;14.90;99.90;;;;;;5053389;28;20048;-75
2023/03/13 12:26:53;;;;;;;6.35;2.00;;;14.90;99.90;;;;;;5046978;28;20122;-74
2023/03/13 12:29:30;;;;;;;7.45;2.42;;;14.90;99.90;;;;;;5049772;28;20049;-75
2023/03/13 12:32:21;;;;;;;6.68;1.67;;;14.90;99.90;;;;;;5063519;28;20414;-74
2023/03/13 12:35:24;;;;;;;7.00;1.70;;;15.00;99.90;;;;;;5058345;28;20127;-74
2023/03/13 12:37:57;;;;;;;8.65;2.35;;;15.20;99.90;;;;;;5045377;28;20113;-74
2023/03/13 12:40:46;;;;;;;7.43;1.92;;;15.40;99.90;;;;;;5038276;28;20117;-74
2023/03/13 12:43:21;;;;;;;7.10;2.15;;;15.50;99.90;;;;;;5012267;28;20049;-73
2023/03/13 12:46:30;;;;;;;7.70;1.95;;;15.80;99.90;;;;;;5059988;28;20044;-73
2023/03/13 12:49:03;;;;;;;9.48;2.40;;;15.90;99.90;;;;;;5059913;28;20109;-74
2023/03/13 12:51:38;;;;;;;10.43;3.22;;;15.80;99.90;;;;;;5065829;28;20487;-72
2023/03/13 12:54:16;;;;;;;12.55;2.88;;;15.50;99.90;;;;;;5062955;28;20052;-74
2023/03/13 12:57:16;;;;;;;9.73;2.70;;;15.30;99.90;;;;;;5059846;28;20052;-74
2023/03/13 12:59:47;;;;;;;10.05;3.17;;;15.10;99.90;;;;;;4992640;28;20049;-72
2023/03/13 13:02:32;;;;;;;13.95;3.40;;;14.90;99.90;;;;;;5048200;28;20068;-74
2023/03/13 13:05:01;;;;;;;12.20;3.75;;;14.90;99.90;;;;;;5045386;28;20123;-75
2023/03/13 13:07:33;;;;;;;9.63;2.63;;;14.80;99.90;;;;;;5060961;28;20079;-75